Sari, Iran
Current Conditions -  °F | °C
As of 9:00 AM on Saturday 25 Oct 2014 (Local Time) from OINZ Reporting Station
Broken Clouds Broken Clouds  
Wind Chill: 66°   Ceiling: 9000
Heat Index: 66°   Visibility: 6mi
Dew Point: 61°   Wind: 2mph
Humidity: 83%   Direction: NA
Pressure: 30"   Gusts: NA
Location:  36.57°N, 53.06°E
Report Text: OINZ 250600Z VRB02KT 9999 SCT030 BKN090 19/16 Q1016
Loading
Personal Weather Stations






























Interactive Weather Map
Tropical Storm Tracking
New forecast layout! Learn more

10-Day Weather Forecast

Advertisements
Track Severe Weather on mobile